sensor_id;sensor_type;location;lat;lon;timestamp;temperature;humidity
12446;DHT22;6287;50.984;7.022;2022-12-07T00:01:44;5.30;99.90
12446;DHT22;6287;50.984;7.022;2022-12-07T00:04:14;5.20;99.90
12446;DHT22;6287;50.984;7.022;2022-12-07T00:06:44;5.20;99.90
12446;DHT22;6287;50.984;7.022;2022-12-07T00:09:15;5.20;99.90
12446;DHT22;6287;50.984;7.022;2022-12-07T00:11:41;5.20;99.90
12446;DHT22;6287;50.984;7.022;2022-12-07T00:14:14;5.20;99.90
12446;DHT22;6287;50.984;7.022;2022-12-07T00:16:40;5.20;99.90
12446;DHT22;6287;50.984;7.022;2022-12-07T00:19:06;5.20;99.90
12446;DHT22;6287;50.984;7.022;2022-12-07T00:21:33;5.30;99.90
12446;DHT22;6287;50.984;7.022;2022-12-07T00:24:03;5.30;99.90
12446;DHT22;6287;50.984;7.022;2022-12-07T00:26:32;5.30;99.90
12446;DHT22;6287;50.984;7.022;2022-12-07T00:29:04;5.30;99.90
12446;DHT22;6287;50.984;7.022;2022-12-07T00:31:36;5.30;99.90
12446;DHT22;6287;50.984;7.022;2022-12-07T00:34:11;5.30;99.90
12446;DHT22;6287;50.984;7.022;2022-12-07T00:36:39;5.30;99.90
12446;DHT22;6287;50.984;7.022;2022-12-07T00:39:05;5.30;99.90
12446;DHT22;6287;50.984;7.022;2022-12-07T00:41:30;5.30;99.90
12446;DHT22;6287;50.984;7.022;2022-12-07T00:43:56;5.30;99.90
12446;DHT22;6287;50.984;7.022;2022-12-07T00:46:23;5.30;99.90
12446;DHT22;6287;50.984;7.022;2022-12-07T00:48:53;5.30;99.90
12446;DHT22;6287;50.984;7.022;2022-12-07T00:51:23;5.40;99.90
12446;DHT22;6287;50.984;7.022;2022-12-07T00:53:49;5.40;99.90
12446;DHT22;6287;50.984;7.022;2022-12-07T00:56:18;5.40;99.90
12446;DHT22;6287;50.984;7.022;2022-12-07T00:58:51;5.40;99.90
12446;DHT22;6287;50.984;7.022;2022-12-07T01:01:20;5.40;99.90
12446;DHT22;6287;50.984;7.022;2022-12-07T01:03:48;5.40;99.90
12446;DHT22;6287;50.984;7.022;2022-12-07T01:06:17;5.40;99.90
12446;DHT22;6287;50.984;7.022;2022-12-07T01:08:43;5.30;99.90
12446;DHT22;6287;50.984;7.022;2022-12-07T01:11:11;5.30;99.90
12446;DHT22;6287;50.984;7.022;2022-12-07T01:13:40;5.40;99.90
12446;DHT22;6287;50.984;7.022;2022-12-07T01:16:07;5.40;99.90
12446;DHT22;6287;50.984;7.022;2022-12-07T01:18:36;5.30;99.90
12446;DHT22;6287;50.984;7.022;2022-12-07T01:21:08;5.30;99.90
12446;DHT22;6287;50.984;7.022;2022-12-07T01:23:37;5.30;99.90
12446;DHT22;6287;50.984;7.022;2022-12-07T01:26:07;9.00;99.90
12446;DHT22;6287;50.984;7.022;2022-12-07T01:28:34;5.30;99.90
12446;DHT22;6287;50.984;7.022;2022-12-07T01:33:33;5.30;99.90
12446;DHT22;6287;50.984;7.022;2022-12-07T01:38:32;5.20;99.90
12446;DHT22;6287;50.984;7.022;2022-12-07T01:41:00;5.20;99.90
12446;DHT22;6287;50.984;7.022;2022-12-07T01:43:32;5.20;99.90
12446;DHT22;6287;50.984;7.022;2022-12-07T01:45:58;5.20;99.90
12446;DHT22;6287;50.984;7.022;2022-12-07T01:48:47;5.10;99.90
12446;DHT22;6287;50.984;7.022;2022-12-07T01:51:15;5.10;99.90
12446;DHT22;6287;50.984;7.022;2022-12-07T01:53:43;5.10;99.90
12446;DHT22;6287;50.984;7.022;2022-12-07T01:56:13;5.20;99.90
12446;DHT22;6287;50.984;7.022;2022-12-07T01:58:42;5.20;99.90
12446;DHT22;6287;50.984;7.022;2022-12-07T02:01:08;5.20;99.90
12446;DHT22;6287;50.984;7.022;2022-12-07T02:03:42;5.10;99.90
12446;DHT22;6287;50.984;7.022;2022-12-07T02:06:10;5.10;99.90
12446;DHT22;6287;50.984;7.022;2022-12-07T02:08:36;5.10;99.90
12446;DHT22;6287;50.984;7.022;2022-12-07T02:11:03;5.10;99.90
12446;DHT22;6287;50.984;7.022;2022-12-07T02:13:34;5.10;99.90
12446;DHT22;6287;50.984;7.022;2022-12-07T02:16:09;5.20;99.90
12446;DHT22;6287;50.984;7.022;2022-12-07T02:21:51;5.20;99.90
12446;DHT22;6287;50.984;7.022;2022-12-07T02:35:08;5.20;99.90
12446;DHT22;6287;50.984;7.022;2022-12-07T02:43:12;5.20;99.90
12446;DHT22;6287;50.984;7.022;2022-12-07T02:45:44;5.20;99.90
12446;DHT22;6287;50.984;7.022;2022-12-07T02:48:14;5.10;99.90
12446;DHT22;6287;50.984;7.022;2022-12-07T02:50:59;5.20;99.90
12446;DHT22;6287;50.984;7.022;2022-12-07T02:53:38;5.20;99.90
12446;DHT22;6287;50.984;7.022;2022-12-07T03:01:56;5.20;99.90
12446;DHT22;6287;50.984;7.022;2022-12-07T03:05:48;5.20;99.90
12446;DHT22;6287;50.984;7.022;2022-12-07T03:08:01;5.20;99.90
12446;DHT22;6287;50.984;7.022;2022-12-07T03:10:56;5.20;99.90
12446;DHT22;6287;50.984;7.022;2022-12-07T03:18:33;5.20;99.90
12446;DHT22;6287;50.984;7.022;2022-12-07T03:21:06;5.20;99.90
12446;DHT22;6287;50.984;7.022;2022-12-07T03:23:35;5.10;99.90
12446;DHT22;6287;50.984;7.022;2022-12-07T03:26:04;5.20;99.90
12446;DHT22;6287;50.984;7.022;2022-12-07T03:28:34;5.20;99.90
12446;DHT22;6287;50.984;7.022;2022-12-07T03:31:14;5.20;99.90
12446;DHT22;6287;50.984;7.022;2022-12-07T03:33:48;5.20;99.90
12446;DHT22;6287;50.984;7.022;2022-12-07T03:36:46;5.20;99.90
12446;DHT22;6287;50.984;7.022;2022-12-07T03:41:46;5.20;99.90
12446;DHT22;6287;50.984;7.022;2022-12-07T03:44:12;5.20;99.90
12446;DHT22;6287;50.984;7.022;2022-12-07T03:52:08;5.20;99.90
12446;DHT22;6287;50.984;7.022;2022-12-07T03:54:49;5.20;99.90
12446;DHT22;6287;50.984;7.022;2022-12-07T03:57:21;5.20;99.90
12446;DHT22;6287;50.984;7.022;2022-12-07T03:59:51;5.30;99.90
12446;DHT22;6287;50.984;7.022;2022-12-07T04:02:21;5.20;99.90
12446;DHT22;6287;50.984;7.022;2022-12-07T04:04:47;5.20;99.90
12446;DHT22;6287;50.984;7.022;2022-12-07T04:07:15;5.20;99.90
12446;DHT22;6287;50.984;7.022;2022-12-07T04:09:41;5.20;99.90
12446;DHT22;6287;50.984;7.022;2022-12-07T04:12:09;5.10;99.90
12446;DHT22;6287;50.984;7.022;2022-12-07T04:14:35;5.10;99.90
12446;DHT22;6287;50.984;7.022;2022-12-07T04:17:00;5.10;99.90
12446;DHT22;6287;50.984;7.022;2022-12-07T04:19:31;5.10;99.90
12446;DHT22;6287;50.984;7.022;2022-12-07T04:21:57;5.10;99.90
12446;DHT22;6287;50.984;7.022;2022-12-07T04:24:24;5.10;99.90
12446;DHT22;6287;50.984;7.022;2022-12-07T04:26:52;5.10;99.90
12446;DHT22;6287;50.984;7.022;2022-12-07T04:29:18;5.20;99.90
12446;DHT22;6287;50.984;7.022;2022-12-07T04:31:44;5.10;99.90
12446;DHT22;6287;50.984;7.022;2022-12-07T04:34:10;5.10;99.90
12446;DHT22;6287;50.984;7.022;2022-12-07T04:36:37;5.10;99.90
12446;DHT22;6287;50.984;7.022;2022-12-07T04:39:07;5.10;99.90
12446;DHT22;6287;50.984;7.022;2022-12-07T04:41:33;5.10;99.90
12446;DHT22;6287;50.984;7.022;2022-12-07T04:44:00;5.10;99.90
12446;DHT22;6287;50.984;7.022;2022-12-07T04:46:28;5.10;99.90
12446;DHT22;6287;50.984;7.022;2022-12-07T04:48:54;5.10;99.90
12446;DHT22;6287;50.984;7.022;2022-12-07T04:51:22;5.10;99.90
12446;DHT22;6287;50.984;7.022;2022-12-07T04:53:51;5.10;99.90
12446;DHT22;6287;50.984;7.022;2022-12-07T04:56:19;5.10;99.90
12446;DHT22;6287;50.984;7.022;2022-12-07T04:58:47;5.10;99.90
12446;DHT22;6287;50.984;7.022;2022-12-07T05:01:14;5.10;99.90
12446;DHT22;6287;50.984;7.022;2022-12-07T05:03:42;5.10;99.90
12446;DHT22;6287;50.984;7.022;2022-12-07T05:06:11;5.10;99.90
12446;DHT22;6287;50.984;7.022;2022-12-07T05:08:39;5.10;99.90
12446;DHT22;6287;50.984;7.022;2022-12-07T05:11:06;5.10;99.90
12446;DHT22;6287;50.984;7.022;2022-12-07T05:13:32;5.10;99.90
12446;DHT22;6287;50.984;7.022;2022-12-07T05:15:58;5.10;99.90
12446;DHT22;6287;50.984;7.022;2022-12-07T05:18:24;5.10;99.90
12446;DHT22;6287;50.984;7.022;2022-12-07T05:20:52;5.10;99.90
12446;DHT22;6287;50.984;7.022;2022-12-07T05:23:20;5.10;99.90
12446;DHT22;6287;50.984;7.022;2022-12-07T05:25:49;5.10;99.90
12446;DHT22;6287;50.984;7.022;2022-12-07T05:28:17;5.10;99.90
12446;DHT22;6287;50.984;7.022;2022-12-07T05:30:45;5.10;99.90
12446;DHT22;6287;50.984;7.022;2022-12-07T05:33:11;5.20;99.90
12446;DHT22;6287;50.984;7.022;2022-12-07T05:35:39;5.20;99.90
12446;DHT22;6287;50.984;7.022;2022-12-07T05:38:05;5.10;99.90
12446;DHT22;6287;50.984;7.022;2022-12-07T05:40:31;5.10;99.90
12446;DHT22;6287;50.984;7.022;2022-12-07T05:42:56;5.10;99.90
12446;DHT22;6287;50.984;7.022;2022-12-07T05:45:22;5.10;99.90
12446;DHT22;6287;50.984;7.022;2022-12-07T05:47:47;5.00;99.90
12446;DHT22;6287;50.984;7.022;2022-12-07T05:50:15;5.00;99.90
12446;DHT22;6287;50.984;7.022;2022-12-07T05:52:41;5.00;99.90
12446;DHT22;6287;50.984;7.022;2022-12-07T05:55:07;5.00;99.90
12446;DHT22;6287;50.984;7.022;2022-12-07T05:57:32;5.00;99.90
12446;DHT22;6287;50.984;7.022;2022-12-07T05:59:58;5.00;99.90
12446;DHT22;6287;50.984;7.022;2022-12-07T06:02:23;5.00;99.90
12446;DHT22;6287;50.984;7.022;2022-12-07T06:04:49;5.00;99.90
12446;DHT22;6287;50.984;7.022;2022-12-07T06:07:16;7.80;99.90
12446;DHT22;6287;50.984;7.022;2022-12-07T06:12:13;4.90;99.90
12446;DHT22;6287;50.984;7.022;2022-12-07T06:14:58;4.90;99.90
12446;DHT22;6287;50.984;7.022;2022-12-07T06:17:26;8.50;99.90
12446;DHT22;6287;50.984;7.022;2022-12-07T06:19:54;4.90;99.90
12446;DHT22;6287;50.984;7.022;2022-12-07T06:22:24;4.80;99.90
12446;DHT22;6287;50.984;7.022;2022-12-07T06:24:52;4.80;99.90
12446;DHT22;6287;50.984;7.022;2022-12-07T06:27:20;4.80;99.90
12446;DHT22;6287;50.984;7.022;2022-12-07T06:29:45;4.70;99.90
12446;DHT22;6287;50.984;7.022;2022-12-07T06:32:11;4.70;99.90
12446;DHT22;6287;50.984;7.022;2022-12-07T06:34:37;4.70;99.90
12446;DHT22;6287;50.984;7.022;2022-12-07T06:37:03;4.70;99.90
12446;DHT22;6287;50.984;7.022;2022-12-07T06:39:29;4.60;99.90
12446;DHT22;6287;50.984;7.022;2022-12-07T06:41:55;4.60;99.90
12446;DHT22;6287;50.984;7.022;2022-12-07T06:44:21;4.70;99.90
12446;DHT22;6287;50.984;7.022;2022-12-07T06:46:48;4.70;99.90
12446;DHT22;6287;50.984;7.022;2022-12-07T06:49:16;4.70;99.90
12446;DHT22;6287;50.984;7.022;2022-12-07T06:51:42;4.80;99.90
12446;DHT22;6287;50.984;7.022;2022-12-07T06:54:09;4.80;99.90
12446;DHT22;6287;50.984;7.022;2022-12-07T06:56:34;4.80;99.90
12446;DHT22;6287;50.984;7.022;2022-12-07T06:59:03;4.80;99.90
12446;DHT22;6287;50.984;7.022;2022-12-07T07:04:01;4.80;99.90
12446;DHT22;6287;50.984;7.022;2022-12-07T07:08:58;4.80;99.90
12446;DHT22;6287;50.984;7.022;2022-12-07T07:11:26;4.80;99.90
12446;DHT22;6287;50.984;7.022;2022-12-07T07:13:54;4.70;99.90
12446;DHT22;6287;50.984;7.022;2022-12-07T07:16:22;4.70;99.90
12446;DHT22;6287;50.984;7.022;2022-12-07T07:18:53;4.70;99.90
12446;DHT22;6287;50.984;7.022;2022-12-07T07:21:18;4.70;99.90
12446;DHT22;6287;50.984;7.022;2022-12-07T07:23:44;4.70;99.90
12446;DHT22;6287;50.984;7.022;2022-12-07T07:26:12;4.70;99.90
12446;DHT22;6287;50.984;7.022;2022-12-07T07:28:37;4.80;99.90
12446;DHT22;6287;50.984;7.022;2022-12-07T07:31:03;4.80;99.90
12446;DHT22;6287;50.984;7.022;2022-12-07T07:33:33;4.80;99.90
12446;DHT22;6287;50.984;7.022;2022-12-07T07:35:59;4.80;99.90
12446;DHT22;6287;50.984;7.022;2022-12-07T07:38:27;4.80;99.90
12446;DHT22;6287;50.984;7.022;2022-12-07T07:40:54;4.90;99.90
12446;DHT22;6287;50.984;7.022;2022-12-07T07:43:20;4.90;99.90
12446;DHT22;6287;50.984;7.022;2022-12-07T07:45:46;4.90;99.90
12446;DHT22;6287;50.984;7.022;2022-12-07T07:48:11;4.90;99.90
12446;DHT22;6287;50.984;7.022;2022-12-07T07:50:39;4.90;99.90
12446;DHT22;6287;50.984;7.022;2022-12-07T07:53:09;5.00;99.90
12446;DHT22;6287;50.984;7.022;2022-12-07T07:58:01;5.10;99.90
12446;DHT22;6287;50.984;7.022;2022-12-07T08:00:29;5.10;99.90
12446;DHT22;6287;50.984;7.022;2022-12-07T08:02:57;5.10;99.90
12446;DHT22;6287;50.984;7.022;2022-12-07T08:05:22;5.10;99.90
12446;DHT22;6287;50.984;7.022;2022-12-07T08:07:50;5.10;99.90
12446;DHT22;6287;50.984;7.022;2022-12-07T08:10:19;5.10;99.90
12446;DHT22;6287;50.984;7.022;2022-12-07T08:12:46;5.10;99.90
12446;DHT22;6287;50.984;7.022;2022-12-07T08:15:30;5.10;99.90
12446;DHT22;6287;50.984;7.022;2022-12-07T08:18:01;5.10;99.90
12446;DHT22;6287;50.984;7.022;2022-12-07T08:20:29;5.20;99.90
12446;DHT22;6287;50.984;7.022;2022-12-07T08:22:55;5.20;99.90
12446;DHT22;6287;50.984;7.022;2022-12-07T08:25:21;5.20;99.90
12446;DHT22;6287;50.984;7.022;2022-12-07T08:27:50;5.30;99.90
12446;DHT22;6287;50.984;7.022;2022-12-07T08:30:18;5.20;99.90
12446;DHT22;6287;50.984;7.022;2022-12-07T08:32:50;5.30;99.90
12446;DHT22;6287;50.984;7.022;2022-12-07T08:35:16;5.30;99.90
12446;DHT22;6287;50.984;7.022;2022-12-07T08:37:46;5.30;99.90
12446;DHT22;6287;50.984;7.022;2022-12-07T08:40:12;5.30;99.90
12446;DHT22;6287;50.984;7.022;2022-12-07T08:42:48;5.30;99.90
12446;DHT22;6287;50.984;7.022;2022-12-07T08:45:16;5.30;99.90
12446;DHT22;6287;50.984;7.022;2022-12-07T08:48:04;5.40;99.90
12446;DHT22;6287;50.984;7.022;2022-12-07T08:50:31;5.40;99.90
12446;DHT22;6287;50.984;7.022;2022-12-07T08:53:01;5.50;99.90
12446;DHT22;6287;50.984;7.022;2022-12-07T08:55:30;5.50;99.90
12446;DHT22;6287;50.984;7.022;2022-12-07T08:57:58;5.60;99.90
12446;DHT22;6287;50.984;7.022;2022-12-07T09:00:26;5.70;99.90
12446;DHT22;6287;50.984;7.022;2022-12-07T09:02:54;5.70;99.90
12446;DHT22;6287;50.984;7.022;2022-12-07T09:05:22;5.70;99.90
12446;DHT22;6287;50.984;7.022;2022-12-07T09:07:54;5.60;99.90
12446;DHT22;6287;50.984;7.022;2022-12-07T09:10:22;5.60;99.90
12446;DHT22;6287;50.984;7.022;2022-12-07T09:12:48;5.70;99.90
12446;DHT22;6287;50.984;7.022;2022-12-07T09:15:14;5.70;99.90
12446;DHT22;6287;50.984;7.022;2022-12-07T09:17:40;5.70;99.90
12446;DHT22;6287;50.984;7.022;2022-12-07T09:20:06;5.80;99.90
12446;DHT22;6287;50.984;7.022;2022-12-07T09:22:32;5.90;99.90
12446;DHT22;6287;50.984;7.022;2022-12-07T09:25:00;5.90;99.90
12446;DHT22;6287;50.984;7.022;2022-12-07T09:27:29;5.90;99.90
12446;DHT22;6287;50.984;7.022;2022-12-07T09:29:57;6.00;99.90
12446;DHT22;6287;50.984;7.022;2022-12-07T09:32:25;6.00;99.90
12446;DHT22;6287;50.984;7.022;2022-12-07T09:34:50;6.00;99.90
12446;DHT22;6287;50.984;7.022;2022-12-07T09:39:47;6.00;99.90
12446;DHT22;6287;50.984;7.022;2022-12-07T09:42:37;6.00;99.90
12446;DHT22;6287;50.984;7.022;2022-12-07T09:45:06;5.90;99.90
12446;DHT22;6287;50.984;7.022;2022-12-07T09:47:35;5.90;99.90
12446;DHT22;6287;50.984;7.022;2022-12-07T09:50:07;6.00;99.90
12446;DHT22;6287;50.984;7.022;2022-12-07T09:55:29;6.20;99.90
12446;DHT22;6287;50.984;7.022;2022-12-07T09:57:57;6.30;99.90
12446;DHT22;6287;50.984;7.022;2022-12-07T10:00:23;6.40;99.90
12446;DHT22;6287;50.984;7.022;2022-12-07T10:02:56;6.60;99.90
12446;DHT22;6287;50.984;7.022;2022-12-07T10:05:31;6.60;99.90
12446;DHT22;6287;50.984;7.022;2022-12-07T10:07:58;6.60;99.90
12446;DHT22;6287;50.984;7.022;2022-12-07T10:10:28;6.70;99.90
12446;DHT22;6287;50.984;7.022;2022-12-07T10:13:07;6.70;99.90
12446;DHT22;6287;50.984;7.022;2022-12-07T10:21:05;6.60;99.90
12446;DHT22;6287;50.984;7.022;2022-12-07T10:23:33;6.70;99.90
12446;DHT22;6287;50.984;7.022;2022-12-07T10:25:59;6.70;99.90
12446;DHT22;6287;50.984;7.022;2022-12-07T10:28:35;6.70;99.90
12446;DHT22;6287;50.984;7.022;2022-12-07T10:31:16;6.60;99.90
12446;DHT22;6287;50.984;7.022;2022-12-07T10:33:49;6.70;99.90
12446;DHT22;6287;50.984;7.022;2022-12-07T10:36:23;6.70;99.90
12446;DHT22;6287;50.984;7.022;2022-12-07T10:38:53;6.70;99.90
12446;DHT22;6287;50.984;7.022;2022-12-07T10:41:21;6.70;99.90
12446;DHT22;6287;50.984;7.022;2022-12-07T10:43:56;6.70;99.90
12446;DHT22;6287;50.984;7.022;2022-12-07T10:51:55;6.70;99.90
12446;DHT22;6287;50.984;7.022;2022-12-07T10:54:31;6.80;99.90
12446;DHT22;6287;50.984;7.022;2022-12-07T11:08:27;7.00;99.90
12446;DHT22;6287;50.984;7.022;2022-12-07T11:21:57;7.10;99.90
12446;DHT22;6287;50.984;7.022;2022-12-07T11:27:29;7.20;99.90
12446;DHT22;6287;50.984;7.022;2022-12-07T11:38:50;7.30;99.90
12446;DHT22;6287;50.984;7.022;2022-12-07T11:41:23;7.40;99.90
12446;DHT22;6287;50.984;7.022;2022-12-07T11:46:49;7.40;99.90
12446;DHT22;6287;50.984;7.022;2022-12-07T11:49:27;7.30;99.90
12446;DHT22;6287;50.984;7.022;2022-12-07T11:52:06;7.30;99.90
12446;DHT22;6287;50.984;7.022;2022-12-07T11:54:40;7.20;99.90
12446;DHT22;6287;50.984;7.022;2022-12-07T11:57:19;7.30;99.90
12446;DHT22;6287;50.984;7.022;2022-12-07T11:59:50;7.30;99.90
12446;DHT22;6287;50.984;7.022;2022-12-07T12:02:24;7.30;99.90
12446;DHT22;6287;50.984;7.022;2022-12-07T12:05:18;7.30;99.90
12446;DHT22;6287;50.984;7.022;2022-12-07T12:07:50;7.30;99.90
12446;DHT22;6287;50.984;7.022;2022-12-07T12:10:58;7.30;99.90
12446;DHT22;6287;50.984;7.022;2022-12-07T12:21:29;7.00;99.90
12446;DHT22;6287;50.984;7.022;2022-12-07T12:24:06;7.00;99.90
12446;DHT22;6287;50.984;7.022;2022-12-07T12:26:36;7.00;99.90
12446;DHT22;6287;50.984;7.022;2022-12-07T12:31:39;7.20;99.90
12446;DHT22;6287;50.984;7.022;2022-12-07T12:34:40;7.30;99.90
12446;DHT22;6287;50.984;7.022;2022-12-07T12:42:49;7.30;99.90
12446;DHT22;6287;50.984;7.022;2022-12-07T12:45:24;7.20;99.90
12446;DHT22;6287;50.984;7.022;2022-12-07T12:47:55;7.20;99.90
12446;DHT22;6287;50.984;7.022;2022-12-07T12:50:32;7.10;99.90
12446;DHT22;6287;50.984;7.022;2022-12-07T12:59:34;7.00;99.90
12446;DHT22;6287;50.984;7.022;2022-12-07T13:02:46;7.00;99.90
12446;DHT22;6287;50.984;7.022;2022-12-07T13:12:58;6.90;99.90
12446;DHT22;6287;50.984;7.022;2022-12-07T13:15:42;7.00;99.90
12446;DHT22;6287;50.984;7.022;2022-12-07T13:28:38;7.60;99.90
12446;DHT22;6287;50.984;7.022;2022-12-07T13:33:51;7.60;99.90
12446;DHT22;6287;50.984;7.022;2022-12-07T13:36:29;7.50;99.90
12446;DHT22;6287;50.984;7.022;2022-12-07T13:39:19;7.40;99.90
12446;DHT22;6287;50.984;7.022;2022-12-07T13:41:56;7.30;99.90
12446;DHT22;6287;50.984;7.022;2022-12-07T13:44:24;7.20;99.90
12446;DHT22;6287;50.984;7.022;2022-12-07T13:49:45;7.20;99.90
12446;DHT22;6287;50.984;7.022;2022-12-07T13:52:28;7.20;99.90
12446;DHT22;6287;50.984;7.022;2022-12-07T13:57:26;7.10;99.90
12446;DHT22;6287;50.984;7.022;2022-12-07T13:59:53;7.20;99.90
12446;DHT22;6287;50.984;7.022;2022-12-07T14:02:30;7.10;99.90
12446;DHT22;6287;50.984;7.022;2022-12-07T14:05:25;7.10;99.90
12446;DHT22;6287;50.984;7.022;2022-12-07T14:10:31;6.90;99.90
12446;DHT22;6287;50.984;7.022;2022-12-07T14:13:01;6.90;99.90
12446;DHT22;6287;50.984;7.022;2022-12-07T14:15:29;6.90;99.90
12446;DHT22;6287;50.984;7.022;2022-12-07T14:17:56;6.90;99.90
12446;DHT22;6287;50.984;7.022;2022-12-07T14:20:48;6.80;99.90
12446;DHT22;6287;50.984;7.022;2022-12-07T14:23:27;6.80;99.90
12446;DHT22;6287;50.984;7.022;2022-12-07T14:25:53;6.70;99.90
12446;DHT22;6287;50.984;7.022;2022-12-07T14:30:51;6.80;99.90
12446;DHT22;6287;50.984;7.022;2022-12-07T14:33:20;6.60;99.90
12446;DHT22;6287;50.984;7.022;2022-12-07T14:38:14;6.60;99.90
12446;DHT22;6287;50.984;7.022;2022-12-07T14:40:42;6.70;99.90
12446;DHT22;6287;50.984;7.022;2022-12-07T14:43:13;6.70;99.90
12446;DHT22;6287;50.984;7.022;2022-12-07T14:45:40;6.60;99.90
12446;DHT22;6287;50.984;7.022;2022-12-07T14:48:11;6.60;99.90
12446;DHT22;6287;50.984;7.022;2022-12-07T14:50:42;6.60;99.90
12446;DHT22;6287;50.984;7.022;2022-12-07T14:53:15;6.60;99.90
12446;DHT22;6287;50.984;7.022;2022-12-07T14:55:41;6.60;99.90
12446;DHT22;6287;50.984;7.022;2022-12-07T14:58:17;6.50;99.90
12446;DHT22;6287;50.984;7.022;2022-12-07T15:00:45;6.50;99.90
12446;DHT22;6287;50.984;7.022;2022-12-07T15:03:14;6.40;99.90
12446;DHT22;6287;50.984;7.022;2022-12-07T15:05:42;6.40;99.90
12446;DHT22;6287;50.984;7.022;2022-12-07T15:08:15;6.50;99.90
12446;DHT22;6287;50.984;7.022;2022-12-07T15:10:41;6.40;99.90
12446;DHT22;6287;50.984;7.022;2022-12-07T15:13:09;6.40;99.90
12446;DHT22;6287;50.984;7.022;2022-12-07T15:15:56;6.40;99.90
12446;DHT22;6287;50.984;7.022;2022-12-07T15:18:23;6.40;99.90
12446;DHT22;6287;50.984;7.022;2022-12-07T15:20:51;6.30;99.90
12446;DHT22;6287;50.984;7.022;2022-12-07T15:25:47;6.30;99.90
12446;DHT22;6287;50.984;7.022;2022-12-07T15:28:14;6.30;99.90
12446;DHT22;6287;50.984;7.022;2022-12-07T15:30:41;6.20;99.90
12446;DHT22;6287;50.984;7.022;2022-12-07T15:33:08;6.20;99.90
12446;DHT22;6287;50.984;7.022;2022-12-07T15:35:33;6.10;99.90
12446;DHT22;6287;50.984;7.022;2022-12-07T15:37:59;6.00;99.90
12446;DHT22;6287;50.984;7.022;2022-12-07T15:40:26;6.00;99.90
12446;DHT22;6287;50.984;7.022;2022-12-07T15:42:57;5.90;99.90
12446;DHT22;6287;50.984;7.022;2022-12-07T15:45:25;5.80;99.90
12446;DHT22;6287;50.984;7.022;2022-12-07T15:47:53;5.70;99.90
12446;DHT22;6287;50.984;7.022;2022-12-07T15:50:21;5.60;99.90
12446;DHT22;6287;50.984;7.022;2022-12-07T15:52:47;5.50;99.90
12446;DHT22;6287;50.984;7.022;2022-12-07T15:57:46;5.40;99.90
12446;DHT22;6287;50.984;7.022;2022-12-07T16:00:14;5.40;99.90
12446;DHT22;6287;50.984;7.022;2022-12-07T16:02:43;5.40;99.90
12446;DHT22;6287;50.984;7.022;2022-12-07T16:05:13;5.30;99.90
12446;DHT22;6287;50.984;7.022;2022-12-07T16:10:08;5.20;99.90
12446;DHT22;6287;50.984;7.022;2022-12-07T16:12:34;5.10;99.90
12446;DHT22;6287;50.984;7.022;2022-12-07T16:15:00;5.10;99.90
12446;DHT22;6287;50.984;7.022;2022-12-07T16:17:27;5.00;99.90
12446;DHT22;6287;50.984;7.022;2022-12-07T16:32:05;4.90;99.90
12446;DHT22;6287;50.984;7.022;2022-12-07T16:34:35;4.90;99.90
12446;DHT22;6287;50.984;7.022;2022-12-07T16:37:01;4.90;99.90
12446;DHT22;6287;50.984;7.022;2022-12-07T16:39:26;4.90;99.90
12446;DHT22;6287;50.984;7.022;2022-12-07T16:41:55;4.90;99.90
12446;DHT22;6287;50.984;7.022;2022-12-07T16:44:23;4.90;99.90
12446;DHT22;6287;50.984;7.022;2022-12-07T16:46:49;5.00;99.90
12446;DHT22;6287;50.984;7.022;2022-12-07T16:49:17;5.00;99.90
12446;DHT22;6287;50.984;7.022;2022-12-07T16:51:45;5.00;99.90
12446;DHT22;6287;50.984;7.022;2022-12-07T16:54:12;5.00;99.90
12446;DHT22;6287;50.984;7.022;2022-12-07T16:56:40;5.00;99.90
12446;DHT22;6287;50.984;7.022;2022-12-07T16:59:06;5.10;99.90
12446;DHT22;6287;50.984;7.022;2022-12-07T17:01:35;5.10;99.90
12446;DHT22;6287;50.984;7.022;2022-12-07T17:04:03;5.10;99.90
12446;DHT22;6287;50.984;7.022;2022-12-07T17:06:31;5.10;99.90
12446;DHT22;6287;50.984;7.022;2022-12-07T17:08:59;5.20;99.90
12446;DHT22;6287;50.984;7.022;2022-12-07T17:11:30;5.10;99.90
12446;DHT22;6287;50.984;7.022;2022-12-07T17:13:58;5.10;99.90
12446;DHT22;6287;50.984;7.022;2022-12-07T17:16:43;5.10;99.90
12446;DHT22;6287;50.984;7.022;2022-12-07T17:19:13;5.20;99.90
12446;DHT22;6287;50.984;7.022;2022-12-07T17:21:40;5.20;99.90
12446;DHT22;6287;50.984;7.022;2022-12-07T17:24:10;5.20;99.90
12446;DHT22;6287;50.984;7.022;2022-12-07T17:26:37;5.20;99.90
12446;DHT22;6287;50.984;7.022;2022-12-07T17:29:04;5.20;99.90
12446;DHT22;6287;50.984;7.022;2022-12-07T17:31:31;5.20;99.90
12446;DHT22;6287;50.984;7.022;2022-12-07T17:34:01;5.20;99.90
12446;DHT22;6287;50.984;7.022;2022-12-07T17:36:34;5.20;99.90
12446;DHT22;6287;50.984;7.022;2022-12-07T17:39:07;5.20;99.90
12446;DHT22;6287;50.984;7.022;2022-12-07T17:41:32;9.10;99.90
12446;DHT22;6287;50.984;7.022;2022-12-07T17:44:17;5.20;99.90
12446;DHT22;6287;50.984;7.022;2022-12-07T17:46:44;5.20;99.90
12446;DHT22;6287;50.984;7.022;2022-12-07T17:49:13;5.20;99.90
12446;DHT22;6287;50.984;7.022;2022-12-07T17:51:39;5.20;99.90
12446;DHT22;6287;50.984;7.022;2022-12-07T17:54:26;5.20;99.90
12446;DHT22;6287;50.984;7.022;2022-12-07T17:56:52;5.20;99.90
12446;DHT22;6287;50.984;7.022;2022-12-07T17:59:20;5.20;99.90
12446;DHT22;6287;50.984;7.022;2022-12-07T18:01:50;5.20;99.90
12446;DHT22;6287;50.984;7.022;2022-12-07T18:04:17;5.20;99.90
12446;DHT22;6287;50.984;7.022;2022-12-07T18:06:45;5.20;99.90
12446;DHT22;6287;50.984;7.022;2022-12-07T18:09:11;5.20;99.90
12446;DHT22;6287;50.984;7.022;2022-12-07T18:11:37;5.20;99.90
12446;DHT22;6287;50.984;7.022;2022-12-07T18:14:04;5.20;99.90
12446;DHT22;6287;50.984;7.022;2022-12-07T18:16:31;5.20;99.90
12446;DHT22;6287;50.984;7.022;2022-12-07T18:19:06;5.20;99.90
12446;DHT22;6287;50.984;7.022;2022-12-07T18:21:33;5.30;99.90
12446;DHT22;6287;50.984;7.022;2022-12-07T18:24:00;5.30;99.90
12446;DHT22;6287;50.984;7.022;2022-12-07T18:26:32;5.30;99.90
12446;DHT22;6287;50.984;7.022;2022-12-07T18:29:00;5.30;99.90
12446;DHT22;6287;50.984;7.022;2022-12-07T18:31:27;5.30;99.90
12446;DHT22;6287;50.984;7.022;2022-12-07T18:33:53;5.30;99.90
12446;DHT22;6287;50.984;7.022;2022-12-07T18:36:25;5.30;99.90
12446;DHT22;6287;50.984;7.022;2022-12-07T18:38:53;5.30;99.90
12446;DHT22;6287;50.984;7.022;2022-12-07T18:41:23;5.30;99.90
12446;DHT22;6287;50.984;7.022;2022-12-07T18:46:19;5.30;99.90
12446;DHT22;6287;50.984;7.022;2022-12-07T18:48:46;5.30;99.90
12446;DHT22;6287;50.984;7.022;2022-12-07T18:51:15;5.30;99.90
12446;DHT22;6287;50.984;7.022;2022-12-07T18:53:44;5.40;99.90
12446;DHT22;6287;50.984;7.022;2022-12-07T18:58:47;5.40;99.90
12446;DHT22;6287;50.984;7.022;2022-12-07T19:01:34;5.40;99.90
12446;DHT22;6287;50.984;7.022;2022-12-07T19:04:00;5.40;99.90
12446;DHT22;6287;50.984;7.022;2022-12-07T19:06:25;5.40;99.90
12446;DHT22;6287;50.984;7.022;2022-12-07T19:08:54;5.40;99.90
12446;DHT22;6287;50.984;7.022;2022-12-07T19:11:23;6.50;99.90
12446;DHT22;6287;50.984;7.022;2022-12-07T19:14:07;5.40;99.90
12446;DHT22;6287;50.984;7.022;2022-12-07T19:16:33;5.40;99.90
12446;DHT22;6287;50.984;7.022;2022-12-07T19:21:28;5.40;99.90
12446;DHT22;6287;50.984;7.022;2022-12-07T19:23:53;5.40;99.90
12446;DHT22;6287;50.984;7.022;2022-12-07T19:26:21;5.50;99.90
12446;DHT22;6287;50.984;7.022;2022-12-07T19:28:50;5.40;99.90
12446;DHT22;6287;50.984;7.022;2022-12-07T19:31:20;5.40;99.90